EST,Max TemperatureF,Mean TemperatureF,Min TemperatureF,Max Dew PointF,MeanDew PointF,Min DewpointF,Max Humidity, Mean Humidity, Min Humidity, Max Sea Level PressureIn, Mean Sea Level PressureIn, Min Sea Level PressureIn, Max VisibilityMiles, Mean VisibilityMiles, Min VisibilityMiles, Max Wind SpeedMPH, Mean Wind SpeedMPH, Max Gust SpeedMPH,PrecipitationIn, CloudCover, Events, WindDirDegrees
2012-12-1,65,53,40,46,43,39,83,68,52,30.21,30.16,30.07,10,10,9,20,12,24,0.00,6,,178
2012-12-2,62,58,54,58,54,46,93,78,62,30.10,30.04,29.99,10,5,0,20,10,24,0.47,8,Fog-Rain,187
2012-12-3,71,65,59,61,57,52,93,80,66,30.10,30.06,29.99,10,6,0,22,12,26,T,6,Fog-Rain,185
2012-12-4,62,52,41,57,48,40,93,83,72,30.21,30.06,30.00,10,8,1,21,10,25,0.16,7,Rain,279
2012-12-5,47,40,33,38,32,27,89,74,58,30.38,30.31,30.22,10,10,10,14,7,17,0.00,0,,20
2012-12-6,50,39,28,44,34,25,86,76,66,30.25,30.09,29.96,10,10,9,13,7,16,0.00,3,,135
2012-12-7,53,48,42,52,47,39,100,93,86,29.97,29.88,29.81,9,3,0,13,6,16,0.06,7,Fog-Rain,149
2012-12-8,52,47,42,50,47,40,96,88,80,30.03,29.87,29.80,10,4,0,13,5,16,T,8,Fog-Rain,254
2012-12-9,59,52,44,56,49,41,93,90,86,30.02,29.81,29.65,10,5,2,20,10,28,0.36,8,Rain,154
2012-12-10,37,34,32,33,28,27,85,78,70,29.96,29.77,29.69,10,9,5,16,11,22,0.00,8,,296
2012-12-11,46,28,15,28,23,15,100,76,51,30.23,30.10,29.96,10,10,8,15,9,17,0.00,5,,226
2012-12-12,44,30,16,27,24,21,100,75,49,30.40,30.34,30.25,10,10,7,9,5,,0.00,0,,166
2012-12-13,48,37,25,29,25,21,85,64,42,30.40,30.34,30.24,10,10,9,14,7,16,0.00,0,,172
2012-12-14,53,42,31,32,28,24,78,60,41,30.27,30.21,30.12,10,10,10,14,7,16,0.00,0,,174
2012-12-15,54,48,41,49,41,30,86,74,62,30.12,29.88,29.73,10,10,3,23,13,30,0.16,7,Rain,168
2012-12-16,56,46,36,51,46,36,93,82,71,29.73,29.69,29.64,10,8,0,16,7,21,0.00,2,Fog-Rain,214
2012-12-17,47,41,34,44,40,33,96,91,86,29.73,29.66,29.56,6,3,0,14,5,16,T,8,Fog-Rain,13
2012-12-18,45,41,36,38,35,33,92,83,73,29.85,29.76,29.67,10,8,3,22,11,28,T,6,Rain,241
2012-12-19,45,42,39,38,35,32,82,76,70,30.06,29.97,29.79,10,8,6,25,8,33,0.02,5,Rain,128
2012-12-20,54,43,31,50,39,28,100,83,66,29.82,29.41,29.20,10,6,2,38,24,53,0.36,8,Rain-Snow-Thunderstorm,190
2012-12-21,31,28,25,28,24,21,100,88,75,30.14,29.75,29.51,10,6,1,32,22,41,T,8,Snow,271
2012-12-22,32,25,17,22,19,15,92,78,63,30.28,30.18,30.06,10,10,10,17,9,22,0.00,2,,231
2012-12-23,45,35,25,30,24,19,82,68,53,30.02,29.95,29.91,10,10,9,12,6,20,0.00,0,,140
2012-12-24,41,36,31,37,32,27,89,82,75,30.01,29.84,29.75,9,5,0,18,8,23,T,7,Fog-Rain,286
2012-12-25,35,34,32,29,27,25,82,76,69,30.19,30.11,30.01,10,8,6,22,10,29,0.00,8,,20
2012-12-26,35,33,30,29,27,23,92,81,70,30.00,29.73,29.61,10,4,0,30,20,40,0.23,8,Fog-Snow,18
2012-12-27,34,28,21,26,23,18,88,79,69,30.17,30.10,29.96,10,10,8,16,6,20,0.00,7,,321
2012-12-28,33,27,20,28,25,19,88,82,75,30.15,30.01,29.81,10,8,2,12,4,14,T,8,Snow,101
2012-12-29,33,30,26,29,26,18,92,84,75,30.24,29.88,29.74,10,3,1,24,11,29,0.06,8,Snow,312
2012-12-30,27,20,13,20,16,10,92,80,68,30.45,30.37,30.26,10,8,5,17,9,22,0.00,2,,211
2012-12-31,37,31,25,32,28,20,96,83,70,30.28,30.12,30.04,10,4,0,20,10,24,0.01,6,Fog-Snow,211